Time;durP1;ratioP1;P1;durP2;ratioP2;P2;SDS_P1;SDS_P2;PMS_P1;PMS_P2;Temp;Humidity;BMP_temperature;BMP_pressure;BME280_temperature;BME280_humidity;BME280_pressure;Samples;Min_cycle;Max_cycle;Signal;HPM_P1;HPM_P2
2023/03/31 00:01:33;;;;;;;41.85;6.78;;;9.50;99.90;;;;;;4952174;28;20113;-84
2023/03/31 00:04:03;;;;;;;38.38;6.15;;;9.40;99.90;;;;;;4953234;28;20344;-84
2023/03/31 00:06:36;;;;;;;39.45;6.15;;;9.50;99.90;;;;;;4935383;28;20121;-83
2023/03/31 00:09:05;;;;;;;38.30;6.65;;;9.50;99.90;;;;;;4937207;28;20051;-84
2023/03/31 00:11:31;;;;;;;41.05;6.07;;;9.40;99.90;;;;;;4953032;28;20050;-84
2023/03/31 00:13:57;;;;;;;34.58;5.35;;;9.40;99.90;;;;;;4952493;28;20053;-84
2023/03/31 00:16:22;;;;;;;38.15;6.57;;;9.40;99.90;;;;;;4951888;28;20171;-83
2023/03/31 00:18:49;;;;;;;41.38;6.57;;;9.50;99.90;;;;;;4936892;28;20057;-84
2023/03/31 00:21:24;;;;;;;32.58;5.57;;;9.50;99.90;;;;;;4935272;28;20105;-83
2023/03/31 00:23:56;;;;;;;37.60;6.43;;;9.50;99.90;;;;;;4941071;28;20046;-84
2023/03/31 00:26:22;;;;;;;40.42;6.47;;;9.50;99.90;;;;;;4936210;28;20042;-85
2023/03/31 00:28:48;;;;;;;47.00;6.50;;;9.60;99.90;;;;;;4950978;28;20046;-84
2023/03/31 00:31:14;;;;;;;48.10;6.32;;;9.50;99.90;;;;;;4950529;28;20054;-84
2023/03/31 00:33:40;;;;;;;40.13;6.18;;;9.50;99.90;;;;;;4936788;28;20078;-84
2023/03/31 00:36:06;;;;;;;33.50;5.38;;;9.50;99.90;;;;;;4935399;28;20051;-84
2023/03/31 00:38:33;;;;;;;42.00;5.95;;;9.50;99.90;;;;;;4936567;28;20047;-84
2023/03/31 00:40:59;;;;;;;35.50;5.75;;;9.40;99.90;;;;;;4936545;28;20150;-84
2023/03/31 00:43:34;;;;;;;56.97;6.63;;;9.40;99.90;;;;;;4936054;28;20150;-84
2023/03/31 00:46:18;;;;;;;43.67;5.88;;;9.30;99.90;;;;;;4936712;28;20047;-84
2023/03/31 00:48:52;;;;;;;43.80;6.97;;;9.30;99.90;;;;;;4952110;28;20090;-84
2023/03/31 00:51:21;;;;;;;43.70;6.95;;;9.30;99.90;;;;;;4951653;28;20051;-84
2023/03/31 00:53:56;;;;;;;39.70;5.90;;;9.20;99.90;;;;;;4935900;28;20101;-84
2023/03/31 00:56:23;;;;;;;39.30;6.10;;;9.20;99.90;;;;;;4935492;28;20089;-83
2023/03/31 00:58:49;;;;;;;38.90;6.45;;;9.20;99.90;;;;;;4935182;28;20046;-84
2023/03/31 01:01:19;;;;;;;40.92;8.75;;;9.20;99.90;;;;;;4936114;28;20042;-84
2023/03/31 01:03:46;;;;;;;52.78;8.70;;;9.20;99.90;;;;;;4935399;28;20419;-84
2023/03/31 01:06:15;;;;;;;53.35;8.63;;;9.20;99.90;;;;;;4935774;28;20051;-85
2023/03/31 01:08:43;;;;;;;38.85;8.38;;;9.20;99.90;;;;;;4935575;28;20117;-84
2023/03/31 01:11:12;;;;;;;36.35;6.43;;;9.10;99.90;;;;;;4951206;28;20070;-84
2023/03/31 01:13:40;;;;;;;42.17;7.72;;;9.10;99.90;;;;;;4935985;28;20038;-84
2023/03/31 01:16:06;;;;;;;44.30;6.30;;;9.10;99.90;;;;;;4936101;28;20047;-84
2023/03/31 01:18:33;;;;;;;47.65;7.40;;;9.10;99.90;;;;;;4934829;28;20439;-83
2023/03/31 01:21:02;;;;;;;31.20;5.90;;;9.10;99.90;;;;;;4935809;28;20038;-84
2023/03/31 01:23:53;;;;;;;38.92;5.82;;;9.00;99.90;;;;;;4935952;28;20046;-84
2023/03/31 01:26:26;;;;;;;39.95;6.35;;;9.00;99.90;;;;;;4952012;28;20109;-84
2023/03/31 01:29:24;;;;;;;36.15;5.88;;;9.00;99.90;;;;;;4935530;28;20531;-84
2023/03/31 01:32:21;;;;;;;40.85;7.32;;;9.00;99.90;;;;;;4934692;28;20106;-85
2023/03/31 01:34:57;;;;;;;35.88;6.55;;;9.00;99.90;;;;;;4935445;28;20050;-84
2023/03/31 01:37:28;;;;;;;40.97;6.15;;;9.00;99.90;;;;;;4950246;28;20058;-84
2023/03/31 01:40:08;;;;;;;42.30;6.45;;;9.00;99.90;;;;;;4922984;28;20177;-84
2023/03/31 01:42:49;;;;;;;35.78;5.72;;;9.00;99.90;;;;;;4935390;28;20097;-84
2023/03/31 01:45:27;;;;;;;33.00;4.40;;;9.00;99.90;;;;;;4934646;28;20039;-84
2023/03/31 01:48:17;;;;;;;36.28;5.18;;;9.00;99.90;;;;;;4935040;28;20459;-84
2023/03/31 01:50:47;;;;;;;38.03;6.15;;;9.00;99.90;;;;;;4934497;28;20747;-84
2023/03/31 01:53:34;;;;;;;38.13;5.50;;;9.00;99.90;;;;;;4950553;28;20050;-84
2023/03/31 01:56:05;;;;;;;37.67;5.80;;;9.00;99.90;;;;;;4935315;28;20105;-84
2023/03/31 01:58:40;;;;;;;34.25;5.30;;;8.90;99.90;;;;;;4935279;28;20098;-84
2023/03/31 02:01:19;;;;;;;34.50;5.10;;;8.90;99.90;;;;;;4950343;28;20054;-85
2023/03/31 02:03:52;;;;;;;32.92;5.60;;;8.90;99.90;;;;;;4935418;28;20043;-84
2023/03/31 02:06:23;;;;;;;34.38;6.32;;;9.00;99.90;;;;;;4934181;28;20120;-85
2023/03/31 02:08:57;;;;;;;42.00;6.05;;;8.90;99.90;;;;;;4935084;28;20047;-84
2023/03/31 02:11:24;;;;;;;38.95;5.38;;;8.90;99.90;;;;;;4935376;28;20392;-84
2023/03/31 02:13:52;;;;;;;31.08;6.30;;;8.90;99.90;;;;;;4950693;28;20126;-84
2023/03/31 02:16:25;;;;;;;34.20;5.03;;;8.90;99.90;;;;;;4934933;28;20039;-84
2023/03/31 02:19:01;;;;;;;33.65;4.93;;;8.90;99.90;;;;;;4950926;28;20078;-85
2023/03/31 02:21:30;;;;;;;38.95;5.53;;;8.90;99.90;;;;;;4934066;28;20054;-84
2023/03/31 02:23:57;;;;;;;28.83;5.22;;;9.00;99.90;;;;;;4935155;28;20046;-85
2023/03/31 02:26:27;;;;;;;35.33;5.35;;;8.90;99.90;;;;;;4934843;28;20043;-84
2023/03/31 02:28:53;;;;;;;38.08;6.45;;;8.90;99.90;;;;;;4934512;28;20047;-84
2023/03/31 02:31:40;;;;;;;32.17;6.00;;;8.90;99.90;;;;;;4934851;28;20089;-85
2023/03/31 02:34:06;;;;;;;37.50;4.88;;;8.90;99.90;;;;;;4934097;28;20047;-84
2023/03/31 02:36:33;;;;;;;35.85;5.10;;;8.90;99.90;;;;;;4934292;28;20049;-85
2023/03/31 02:39:06;;;;;;;27.63;4.25;;;9.00;99.90;;;;;;4951246;28;20047;-84
2023/03/31 02:41:32;;;;;;;31.83;5.13;;;8.90;99.90;;;;;;4934360;28;20423;-84
2023/03/31 02:43:58;;;;;;;32.83;5.35;;;9.00;99.90;;;;;;4935300;28;20121;-84
2023/03/31 02:46:24;;;;;;;33.92;4.45;;;9.00;99.90;;;;;;4935066;28;20358;-83
2023/03/31 02:48:54;;;;;;;32.45;4.75;;;9.00;99.90;;;;;;4934152;28;20042;-84
2023/03/31 02:51:20;;;;;;;31.30;4.82;;;9.10;99.90;;;;;;4934604;28;20078;-83
2023/03/31 02:53:51;;;;;;;30.38;4.45;;;9.00;99.90;;;;;;4938670;28;20078;-84
2023/03/31 02:56:35;;;;;;;33.00;6.00;;;9.10;99.90;;;;;;4953224;28;20054;-84
2023/03/31 02:59:23;;;;;;;26.33;4.75;;;9.10;99.90;;;;;;4938335;28;20039;-84
2023/03/31 03:02:05;;;;;;;45.00;5.90;;;9.10;99.90;;;;;;4938263;28;20411;-85
2023/03/31 03:04:48;;;;;;;30.48;4.55;;;9.10;99.90;;;;;;4939155;28;20054;-84
2023/03/31 03:07:28;;;;;;;29.88;4.40;;;9.20;99.90;;;;;;4937371;28;20050;-84
2023/03/31 03:10:03;;;;;;;22.08;4.47;;;9.20;99.90;;;;;;4937545;28;20113;-84
2023/03/31 03:12:46;;;;;;;29.83;5.38;;;9.20;99.90;;;;;;4938211;28;20368;-84
2023/03/31 03:15:24;;;;;;;35.88;4.50;;;9.20;99.90;;;;;;4953451;28;20083;-84
2023/03/31 03:17:50;;;;;;;28.40;4.30;;;9.20;99.90;;;;;;4937304;28;20137;-85
2023/03/31 03:20:18;;;;;;;23.45;4.43;;;9.20;99.90;;;;;;4937756;28;20047;-84
2023/03/31 03:22:44;;;;;;;26.48;4.55;;;9.20;99.90;;;;;;4952862;28;20046;-84
2023/03/31 03:25:13;;;;;;;29.90;4.78;;;9.20;99.90;;;;;;4953487;28;20069;-84
2023/03/31 03:27:39;;;;;;;27.85;4.75;;;9.10;99.90;;;;;;4953762;28;20058;-84
2023/03/31 03:30:08;;;;;;;25.75;4.82;;;9.10;99.90;;;;;;4934235;29;20050;-84
2023/03/31 03:32:34;;;;;;;32.25;4.65;;;9.00;99.90;;;;;;4946404;28;20054;-84
2023/03/31 03:35:01;;;;;;;32.50;4.63;;;9.00;99.90;;;;;;4938244;28;20415;-84
2023/03/31 03:37:28;;;;;;;31.88;4.55;;;9.00;99.90;;;;;;4952887;28;20054;-84
2023/03/31 03:39:54;;;;;;;29.55;4.43;;;9.00;99.90;;;;;;4937443;28;20035;-84
2023/03/31 03:42:19;;;;;;;23.10;4.47;;;9.00;99.90;;;;;;4937949;28;20171;-84
2023/03/31 03:44:45;;;;;;;21.08;4.40;;;9.00;99.90;;;;;;4937288;28;20039;-84
2023/03/31 03:47:11;;;;;;;32.22;4.50;;;8.90;99.90;;;;;;4937697;28;20086;-84
2023/03/31 03:49:37;;;;;;;26.33;4.30;;;8.90;99.90;;;;;;4937721;28;20049;-84
2023/03/31 03:52:03;;;;;;;27.05;4.55;;;8.90;99.90;;;;;;4951950;28;20051;-84
2023/03/31 03:54:28;;;;;;;26.88;3.80;;;9.00;99.90;;;;;;4938299;28;20491;-85
2023/03/31 03:56:54;;;;;;;21.67;4.05;;;9.00;99.90;;;;;;4953572;28;20038;-84
2023/03/31 03:59:20;;;;;;;24.40;3.95;;;8.90;99.90;;;;;;4937118;28;20566;-84
2023/03/31 04:01:45;;;;;;;20.58;3.92;;;9.00;99.90;;;;;;4937388;28;20577;-84
2023/03/31 04:04:11;;;;;;;25.70;4.25;;;9.00;99.90;;;;;;4953549;28;20078;-84
2023/03/31 04:06:37;;;;;;;22.52;4.40;;;9.00;99.90;;;;;;4952378;28;20053;-85
2023/03/31 04:09:03;;;;;;;25.10;4.40;;;9.00;99.90;;;;;;4937454;28;20054;-85
2023/03/31 04:11:29;;;;;;;26.60;4.05;;;9.00;99.90;;;;;;4953367;28;20491;-85
2023/03/31 04:13:55;;;;;;;20.67;3.95;;;9.00;99.90;;;;;;4952806;28;20211;-84
2023/03/31 04:16:24;;;;;;;23.70;4.60;;;9.10;99.90;;;;;;4936412;28;20050;-85
2023/03/31 04:18:55;;;;;;;29.00;4.55;;;9.10;99.90;;;;;;4937838;28;20403;-85
2023/03/31 04:21:22;;;;;;;20.95;4.28;;;9.20;99.90;;;;;;4935972;28;20060;-85
2023/03/31 04:23:57;;;;;;;17.08;5.00;;;9.20;99.90;;;;;;4937370;28;20106;-84
2023/03/31 04:26:29;;;;;;;24.33;4.65;;;9.20;99.90;;;;;;4936871;28;20135;-85
2023/03/31 04:28:59;;;;;;;23.83;6.15;;;9.20;99.90;;;;;;4939361;28;20035;-84
2023/03/31 04:31:25;;;;;;;27.02;5.13;;;9.20;99.90;;;;;;4931209;28;20070;-84
2023/03/31 04:33:53;;;;;;;21.58;5.07;;;9.20;99.90;;;;;;4936572;28;20047;-85
2023/03/31 04:36:19;;;;;;;21.23;5.38;;;9.30;99.90;;;;;;4936464;28;20077;-85
2023/03/31 04:38:49;;;;;;;17.98;5.45;;;9.30;99.90;;;;;;4937272;28;20043;-85
2023/03/31 04:41:16;;;;;;;24.55;6.10;;;9.30;99.90;;;;;;4936287;28;20051;-85
2023/03/31 04:43:42;;;;;;;18.30;5.93;;;9.30;99.90;;;;;;4953014;28;20109;-85
2023/03/31 04:46:08;;;;;;;22.08;6.03;;;9.30;99.90;;;;;;4936725;28;20093;-84
2023/03/31 04:48:35;;;;;;;18.00;6.30;;;9.30;99.90;;;;;;4952507;28;20807;-85
2023/03/31 04:51:00;;;;;;;21.08;6.85;;;9.30;99.90;;;;;;4951987;28;20039;-86
2023/03/31 04:53:26;;;;;;;21.98;6.97;;;9.30;99.90;;;;;;4937951;28;20101;-86
2023/03/31 04:55:52;;;;;;;20.70;6.82;;;9.40;99.90;;;;;;4936433;28;20042;-86
2023/03/31 04:58:18;;;;;;;24.40;7.45;;;9.40;99.90;;;;;;4936783;28;20414;-86
2023/03/31 05:00:44;;;;;;;17.65;7.60;;;9.40;99.90;;;;;;4937255;28;20054;-87
2023/03/31 05:03:10;;;;;;;22.70;8.15;;;9.30;99.90;;;;;;4945595;28;20068;-87
2023/03/31 05:05:36;;;;;;;22.73;7.63;;;9.40;99.90;;;;;;4951475;28;20038;-87
2023/03/31 05:08:02;;;;;;;21.02;7.28;;;9.30;99.90;;;;;;4938333;28;20058;-88
2023/03/31 05:10:29;;;;;;;22.83;7.72;;;9.40;99.90;;;;;;4938275;28;20443;-89
2023/03/31 05:12:55;;;;;;;25.60;8.48;;;9.40;99.90;;;;;;4938907;28;20043;-88
2023/03/31 05:15:23;;;;;;;27.25;8.98;;;9.40;99.90;;;;;;4937418;28;20054;-89
2023/03/31 05:17:49;;;;;;;25.67;8.30;;;9.40;99.90;;;;;;4938182;28;20042;-88
2023/03/31 05:20:15;;;;;;;24.27;8.25;;;9.40;99.90;;;;;;4938825;28;20043;-89
2023/03/31 05:22:41;;;;;;;19.52;8.52;;;9.30;99.90;;;;;;4938260;28;20101;-89
2023/03/31 05:25:10;;;;;;;21.92;8.27;;;9.40;99.90;;;;;;4938084;28;20142;-88
2023/03/31 05:27:36;;;;;;;26.33;8.52;;;9.40;99.90;;;;;;4938740;28;20057;-89
2023/03/31 05:30:03;;;;;;;26.70;9.25;;;9.40;99.90;;;;;;4938217;28;20046;-89
2023/03/31 05:32:28;;;;;;;23.55;8.38;;;9.40;99.90;;;;;;4938290;28;20039;-89
2023/03/31 05:34:56;;;;;;;23.95;8.10;;;9.30;99.90;;;;;;4938515;28;20045;-88
2023/03/31 05:37:23;;;;;;;24.80;8.60;;;9.40;99.90;;;;;;4936787;28;20062;-88
2023/03/31 05:39:49;;;;;;;24.40;8.35;;;9.40;99.90;;;;;;4938280;28;20356;-88
2023/03/31 05:42:15;;;;;;;27.52;9.32;;;9.40;99.90;;;;;;4927804;28;20499;-88
2023/03/31 05:44:40;;;;;;;23.92;7.53;;;9.40;99.90;;;;;;4931750;29;20049;-86
2023/03/31 05:47:06;;;;;;;24.13;7.80;;;9.50;99.90;;;;;;4933498;28;20411;-89
2023/03/31 05:49:32;;;;;;;24.98;7.63;;;9.40;99.90;;;;;;4923505;29;20035;-89
2023/03/31 05:51:58;;;;;;;26.10;6.45;;;9.50;99.90;;;;;;4922893;28;20046;-89
2023/03/31 05:54:23;;;;;;;26.17;6.78;;;9.40;99.90;;;;;;4932301;29;20049;-89
2023/03/31 05:56:49;;;;;;;16.67;6.25;;;9.50;99.90;;;;;;4938218;28;20503;-89
2023/03/31 05:59:15;;;;;;;21.92;5.93;;;9.50;99.90;;;;;;4938830;28;20547;-90
2023/03/31 06:01:41;;;;;;;22.00;6.10;;;9.50;99.90;;;;;;4938362;28;20061;-89
2023/03/31 06:04:07;;;;;;;25.38;6.53;;;9.50;99.90;;;;;;4939014;28;20062;-89
2023/03/31 06:06:33;;;;;;;20.38;6.13;;;9.50;99.90;;;;;;4933176;28;20101;-89
2023/03/31 06:08:59;;;;;;;13.48;5.18;;;9.60;99.90;;;;;;4937674;28;20133;-89
2023/03/31 06:11:25;;;;;;;24.17;6.40;;;9.50;99.90;;;;;;4938340;28;20062;-88
2023/03/31 06:13:51;;;;;;;16.92;5.15;;;9.60;99.90;;;;;;4931038;28;20055;-88
2023/03/31 06:16:17;;;;;;;19.33;5.47;;;9.50;99.90;;;;;;4937376;28;20113;-88
2023/03/31 06:18:44;;;;;;;24.83;5.28;;;9.50;99.90;;;;;;4937653;28;20053;-88
2023/03/31 06:21:15;;;;;;;22.20;5.43;;;9.60;99.90;;;;;;4936560;28;20380;-89
2023/03/31 06:23:43;;;;;;;20.95;5.50;;;9.60;99.90;;;;;;4935475;29;20126;-89
2023/03/31 06:26:12;;;;;;;13.30;4.68;;;9.60;99.90;;;;;;4934596;28;20430;-90
2023/03/31 06:28:38;;;;;;;14.95;4.80;;;9.60;99.90;;;;;;4942710;28;20043;-89
2023/03/31 06:31:06;;;;;;;18.10;4.95;;;9.60;99.90;;;;;;4941411;28;20122;-88
2023/03/31 06:33:33;;;;;;;16.65;4.70;;;9.60;99.90;;;;;;4941161;28;20054;-90
2023/03/31 06:36:00;;;;;;;19.92;5.05;;;9.60;99.90;;;;;;4953536;28;20053;-89
2023/03/31 06:38:26;;;;;;;16.45;4.97;;;9.60;99.90;;;;;;4942861;28;20572;-90
2023/03/31 06:40:53;;;;;;;14.32;4.45;;;9.60;99.90;;;;;;4942433;28;20109;-89
2023/03/31 06:43:19;;;;;;;12.73;5.03;;;9.70;99.90;;;;;;4943021;28;20047;-89
2023/03/31 06:45:46;;;;;;;20.17;4.90;;;9.60;99.90;;;;;;4942062;28;20047;-90
2023/03/31 06:48:15;;;;;;;14.05;4.35;;;9.60;99.90;;;;;;4942570;28;20074;-89
2023/03/31 06:50:44;;;;;;;12.00;4.35;;;9.70;99.90;;;;;;4936926;28;20043;-89
2023/03/31 06:53:19;;;;;;;15.07;4.55;;;9.70;99.90;;;;;;4940997;28;20054;-89
2023/03/31 06:56:03;;;;;;;16.23;4.65;;;9.70;99.90;;;;;;4939533;28;20039;-89
2023/03/31 06:58:31;;;;;;;17.23;4.50;;;9.80;99.90;;;;;;4937552;28;20109;-90
2023/03/31 07:00:57;;;;;;;15.73;4.40;;;9.70;99.90;;;;;;4940139;28;20047;-89
2023/03/31 07:03:23;;;;;;;12.60;4.20;;;9.80;99.90;;;;;;4939493;28;20055;-88
2023/03/31 07:05:54;;;;;;;13.15;4.57;;;9.80;99.90;;;;;;4929954;28;20046;-89
2023/03/31 07:08:21;;;;;;;14.15;4.35;;;9.80;99.90;;;;;;4935915;28;20063;-88
2023/03/31 07:11:20;;;;;;;18.42;5.25;;;9.80;99.90;;;;;;4943717;29;20399;-88
2023/03/31 07:13:48;;;;;;;14.63;4.40;;;9.80;99.90;;;;;;4937863;28;20050;-89
2023/03/31 07:16:20;;;;;;;14.52;3.97;;;9.80;99.90;;;;;;4928226;29;20054;-88
2023/03/31 07:18:46;;;;;;;12.00;4.07;;;9.80;99.90;;;;;;4922959;29;20047;-90
2023/03/31 07:21:11;;;;;;;14.57;4.20;;;9.80;99.90;;;;;;4921320;29;20502;-90
2023/03/31 07:23:37;;;;;;;13.70;4.22;;;9.90;99.90;;;;;;4927678;28;20047;-89
2023/03/31 07:26:03;;;;;;;14.00;4.03;;;9.90;99.90;;;;;;4927987;28;20043;-90
2023/03/31 07:28:29;;;;;;;11.98;4.13;;;9.90;99.90;;;;;;4921500;29;20122;-89
2023/03/31 07:30:55;;;;;;;14.30;4.20;;;9.90;99.90;;;;;;4928936;28;20050;-89
2023/03/31 07:33:24;;;;;;;12.70;4.88;;;9.90;99.90;;;;;;4934070;29;20566;-90
2023/03/31 07:35:50;;;;;;;12.93;4.03;;;9.90;99.90;;;;;;4931182;28;20121;-88
2023/03/31 07:38:16;;;;;;;14.23;4.35;;;9.90;99.90;;;;;;4933084;28;20459;-88
2023/03/31 07:40:50;;;;;;;12.07;4.00;;;10.00;99.90;;;;;;4939034;28;20053;-89
2023/03/31 07:43:16;;;;;;;10.85;4.03;;;10.00;99.90;;;;;;4940637;28;20051;-90
2023/03/31 07:45:48;;;;;;;10.70;3.80;;;10.00;99.90;;;;;;4931115;28;20049;-92
2023/03/31 07:48:52;;;;;;;17.33;4.43;;;10.10;99.90;;;;;;4940568;28;20082;-92
2023/03/31 07:51:24;;;;;;;18.17;4.35;;;10.10;99.90;;;;;;4895390;28;20062;-91
2023/03/31 07:53:51;;;;;;;13.80;4.10;;;10.10;99.90;;;;;;4940221;28;20050;-88
2023/03/31 07:56:18;;;;;;;12.55;3.92;;;10.20;99.90;;;;;;4939473;28;20049;-89
2023/03/31 07:58:51;;;;;;;13.60;4.13;;;10.10;99.90;;;;;;4939053;28;20049;-89
2023/03/31 08:01:24;;;;;;;14.45;4.70;;;10.10;99.90;;;;;;4939384;28;20047;-90
2023/03/31 08:04:02;;;;;;;17.02;4.78;;;10.10;99.90;;;;;;4939669;28;20038;-90
2023/03/31 08:06:28;;;;;;;13.63;3.83;;;9.80;99.90;;;;;;4938813;28;20062;-90
2023/03/31 08:08:55;;;;;;;15.05;4.40;;;10.10;99.90;;;;;;4939744;28;20051;-91
2023/03/31 08:11:20;;;;;;;14.98;3.92;;;10.10;99.90;;;;;;4938893;28;20332;-90
2023/03/31 08:13:52;;;;;;;14.48;3.95;;;10.10;99.90;;;;;;4940899;28;20037;-89
2023/03/31 08:16:18;;;;;;;11.05;3.75;;;10.10;99.90;;;;;;4939473;28;20067;-90
2023/03/31 08:18:51;;;;;;;13.77;4.00;;;10.00;99.90;;;;;;4939766;28;20062;-90
2023/03/31 08:21:19;;;;;;;;;;;10.00;99.90;;;;;;4938094;28;20054;-90
2023/03/31 08:23:54;;;;;;;13.82;3.75;;;10.00;99.90;;;;;;4939133;28;20337;-90
2023/03/31 08:26:20;;;;;;;14.85;4.55;;;10.00;99.90;;;;;;4949816;28;20043;-89
2023/03/31 08:28:48;;;;;;;13.73;4.07;;;10.00;99.90;;;;;;4939018;28;20362;-90
2023/03/31 08:31:15;;;;;;;15.90;5.32;;;10.00;99.90;;;;;;4938411;28;20046;-90
2023/03/31 08:33:50;;;;;;;16.30;4.65;;;10.00;99.90;;;;;;4938440;28;20043;-90
2023/03/31 08:36:16;;;;;;;11.43;4.43;;;10.00;99.90;;;;;;4938076;28;20047;-90
2023/03/31 08:38:59;;;;;;;14.00;4.10;;;10.00;99.90;;;;;;4938478;28;20058;-89
2023/03/31 08:41:41;;;;;;;9.55;2.97;;;10.10;99.90;;;;;;4951360;28;20039;-90
2023/03/31 08:44:19;;;;;;;13.75;3.35;;;10.00;99.90;;;;;;4954673;28;20109;-89
2023/03/31 08:46:54;;;;;;;12.70;3.30;;;10.00;99.90;;;;;;4938011;28;20058;-90
2023/03/31 08:49:21;;;;;;;9.23;3.30;;;10.10;99.90;;;;;;4937861;28;20055;-89
2023/03/31 08:51:59;;;;;;;10.48;3.35;;;10.10;99.90;;;;;;4938328;28;20047;-89
2023/03/31 08:54:42;;;;;;;8.73;2.80;;;10.10;99.90;;;;;;4938076;28;20046;-88
2023/03/31 08:57:19;;;;;;;11.63;3.25;;;10.10;99.90;;;;;;4938518;28;20576;-91
2023/03/31 08:59:49;;;;;;;12.57;3.60;;;10.10;99.90;;;;;;4939052;28;20134;-91
2023/03/31 09:02:47;;;;;;;11.82;3.20;;;10.10;99.90;;;;;;4939145;28;20034;-89
2023/03/31 09:05:24;;;;;;;13.55;3.38;;;10.20;99.90;;;;;;4939024;28;20062;-89
2023/03/31 09:08:03;;;;;;;12.23;3.20;;;10.20;99.90;;;;;;4954660;28;20101;-89
2023/03/31 09:10:55;;;;;;;12.10;2.95;;;10.10;99.90;;;;;;4939053;28;20059;-89
2023/03/31 09:13:55;;;;;;;13.48;3.60;;;10.30;99.90;;;;;;4938763;28;20141;-89
2023/03/31 09:16:45;;;;;;;13.68;3.35;;;10.30;99.90;;;;;;4939551;28;20050;-89
2023/03/31 09:19:18;;;;;;;10.75;3.53;;;10.70;99.90;;;;;;4938904;28;20047;-89
2023/03/31 09:21:47;;;;;;;;;;;10.40;99.90;;;;;;4938259;28;20039;-89
2023/03/31 09:24:42;;;;;;;10.65;3.60;;;10.40;99.90;;;;;;4938186;28;19933;-89
2023/03/31 09:27:17;;;;;;;11.70;3.83;;;10.50;99.90;;;;;;4928229;28;20054;-90
2023/03/31 09:29:56;;;;;;;11.93;3.75;;;10.40;99.90;;;;;;4937901;28;20471;-89
2023/03/31 09:32:25;;;;;;;14.85;3.13;;;10.50;99.90;;;;;;4938801;28;20525;-90
2023/03/31 09:34:56;;;;;;;12.18;3.53;;;10.50;99.90;;;;;;4938749;28;20073;-89
2023/03/31 09:37:31;;;;;;;10.05;3.05;;;10.60;99.90;;;;;;4938099;28;20046;-90
2023/03/31 09:40:06;;;;;;;13.18;3.25;;;10.60;99.90;;;;;;4927826;28;20057;-90
2023/03/31 09:42:34;;;;;;;12.70;3.10;;;10.60;99.90;;;;;;4938936;28;20082;-91
2023/03/31 09:45:00;;;;;;;12.38;3.08;;;10.60;99.90;;;;;;4938488;28;20050;-90
2023/03/31 09:47:37;;;;;;;12.52;3.78;;;10.60;99.90;;;;;;4939255;28;20054;-89
2023/03/31 09:50:17;;;;;;;18.05;3.53;;;10.60;99.90;;;;;;4939150;28;20053;-89
2023/03/31 09:52:48;;;;;;;15.52;3.92;;;10.70;99.90;;;;;;4938076;28;20074;-90
2023/03/31 09:55:42;;;;;;;13.20;3.30;;;10.80;99.90;;;;;;4938727;28;20042;-89
2023/03/31 09:58:24;;;;;;;13.40;3.50;;;10.80;99.90;;;;;;4938372;28;20085;-89
2023/03/31 10:01:05;;;;;;;13.13;3.92;;;10.90;99.90;;;;;;4926329;28;20042;-90
2023/03/31 10:03:35;;;;;;;11.77;3.58;;;10.90;99.90;;;;;;4937000;28;20545;-90
2023/03/31 10:06:19;;;;;;;14.77;3.70;;;11.00;99.90;;;;;;4938605;28;20135;-89
2023/03/31 10:08:50;;;;;;;13.23;4.13;;;11.10;99.90;;;;;;4938655;28;20043;-90
2023/03/31 10:11:26;;;;;;;13.32;3.75;;;11.20;99.90;;;;;;4945814;28;20047;-90
2023/03/31 10:14:03;;;;;;;14.52;3.53;;;11.10;99.90;;;;;;4937564;28;20055;-89
2023/03/31 10:16:42;;;;;;;19.70;4.15;;;11.40;99.90;;;;;;4939996;28;20133;-91
2023/03/31 10:19:32;;;;;;;11.27;3.40;;;11.10;99.90;;;;;;4953515;28;20066;-89
2023/03/31 10:22:01;;;;;;;16.52;3.47;;;11.50;99.90;;;;;;4937342;28;20119;-90
2023/03/31 10:24:37;;;;;;;11.13;3.15;;;11.50;99.90;;;;;;4936111;28;20057;-90
2023/03/31 10:27:34;;;;;;;13.20;3.00;;;11.50;99.90;;;;;;4942860;28;20139;-90
2023/03/31 10:30:07;;;;;;;12.32;2.72;;;11.50;99.90;;;;;;4935905;28;20098;-89
2023/03/31 10:32:41;;;;;;;13.25;3.00;;;11.50;99.90;;;;;;4939954;28;20176;-90
2023/03/31 10:35:44;;;;;;;12.20;2.60;;;11.50;99.90;;;;;;4937775;28;20122;-90
2023/03/31 10:38:22;;;;;;;10.35;3.08;;;11.60;99.90;;;;;;4930395;28;20152;-90
2023/03/31 10:41:09;;;;;;;11.57;3.17;;;11.50;99.90;;;;;;4934306;28;20040;-90
2023/03/31 10:43:35;;;;;;;8.80;2.28;;;11.50;99.90;;;;;;4931573;28;20047;-89
2023/03/31 10:46:01;;;;;;;8.73;2.47;;;11.40;99.90;;;;;;4933595;28;20049;-89
2023/03/31 10:48:33;;;;;;;11.32;2.90;;;11.40;99.90;;;;;;4936350;28;20070;-90
2023/03/31 10:51:10;;;;;;;7.15;2.70;;;11.30;99.90;;;;;;4929177;28;20053;-90
2023/03/31 10:53:49;;;;;;;10.85;3.15;;;11.30;99.90;;;;;;4937178;28;20432;-89
2023/03/31 10:56:35;;;;;;;13.82;3.35;;;11.30;99.90;;;;;;4937493;28;20135;-89
2023/03/31 10:59:14;;;;;;;12.50;3.20;;;11.30;99.90;;;;;;4937940;28;20121;-89
2023/03/31 11:02:13;;;;;;;10.23;3.25;;;11.40;99.90;;;;;;4918468;29;20130;-89
2023/03/31 11:05:06;;;;;;;8.98;2.83;;;11.60;99.90;;;;;;4947946;29;20142;-90
2023/03/31 11:07:49;;;;;;;9.85;2.80;;;11.70;99.90;;;;;;4938624;28;20070;-90
2023/03/31 11:10:32;;;;;;;11.57;2.38;;;11.90;99.90;;;;;;4929624;28;20141;-90
2023/03/31 11:13:06;;;;;;;12.05;3.15;;;11.90;99.90;;;;;;4929115;28;20086;-89
2023/03/31 11:15:53;;;;;;;7.40;2.28;;;12.00;99.90;;;;;;4935438;28;20486;-88
2023/03/31 11:18:31;;;;;;;8.73;2.42;;;12.10;99.90;;;;;;4940626;28;20047;-88
2023/03/31 11:21:26;;;;;;;7.63;2.20;;;12.20;99.90;;;;;;4928176;29;20050;-88
2023/03/31 11:23:59;;;;;;;11.77;2.30;;;12.30;99.90;;;;;;4928651;28;20047;-89
2023/03/31 11:27:13;;;;;;;8.93;2.22;;;12.40;99.90;;;;;;4939829;28;20047;-88
2023/03/31 11:29:47;;;;;;;7.68;2.53;;;12.40;99.90;;;;;;4941181;28;20137;-90
2023/03/31 11:32:46;;;;;;;8.68;2.45;;;12.50;99.90;;;;;;4929792;29;20055;-89
2023/03/31 11:35:31;;;;;;;8.32;1.98;;;12.60;99.90;;;;;;4939066;29;20047;-88
2023/03/31 11:38:10;;;;;;;10.65;2.60;;;12.80;99.90;;;;;;4922176;28;20057;-88
2023/03/31 11:40:53;;;;;;;12.85;2.35;;;13.00;99.90;;;;;;4921323;29;20124;-88
2023/03/31 11:43:50;;;;;;;10.18;2.50;;;13.20;99.90;;;;;;4934198;28;20137;-88
2023/03/31 11:46:20;;;;;;;11.02;2.17;;;13.40;99.90;;;;;;4937893;28;20043;-88
2023/03/31 11:48:51;;;;;;;8.48;2.42;;;13.70;99.90;;;;;;4933437;29;20055;-87
2023/03/31 11:51:23;;;;;;;8.32;2.40;;;14.00;99.90;;;;;;4933023;28;20051;-89
2023/03/31 11:53:52;;;;;;;11.20;2.45;;;14.20;99.90;;;;;;4952052;28;20043;-88
2023/03/31 11:56:21;;;;;;;8.07;1.75;;;14.30;99.90;;;;;;4936742;28;20128;-88
2023/03/31 11:58:55;;;;;;;8.27;2.03;;;14.30;99.90;;;;;;4941988;28;20186;-89
2023/03/31 12:01:33;;;;;;;9.57;2.00;;;14.30;99.90;;;;;;4938733;28;20047;-88
2023/03/31 12:04:05;;;;;;;10.68;2.03;;;14.20;99.90;;;;;;4938174;28;20050;-89
2023/03/31 12:06:38;;;;;;;6.90;1.58;;;14.20;99.90;;;;;;4938583;28;20483;-88
2023/03/31 12:09:34;;;;;;;10.70;1.98;;;13.90;99.90;;;;;;4926124;28;20062;-89
2023/03/31 12:11:59;;;;;;;9.30;1.75;;;13.60;99.90;;;;;;4938884;28;20082;-92
2023/03/31 12:14:37;;;;;;;8.70;2.28;;;13.30;99.90;;;;;;4939827;28;20074;-91
2023/03/31 12:17:14;;;;;;;7.18;1.92;;;13.00;99.90;;;;;;4938875;28;20455;-91
2023/03/31 12:19:44;;;;;;;6.57;1.40;;;12.60;99.90;;;;;;4938667;28;20051;-91
2023/03/31 12:22:21;;;;;;;8.13;2.05;;;12.40;99.90;;;;;;4949046;28;20050;-91
2023/03/31 12:24:51;;;;;;;10.25;2.33;;;12.40;99.90;;;;;;4936485;28;20522;-91
2023/03/31 12:27:21;;;;;;;10.45;1.88;;;12.50;99.90;;;;;;4938784;28;20118;-90
2023/03/31 12:29:59;;;;;;;8.70;2.17;;;12.60;99.90;;;;;;4937957;28;20066;-90
2023/03/31 12:32:35;;;;;;;8.27;1.70;;;12.70;99.90;;;;;;4932342;28;20058;-91
2023/03/31 12:35:10;;;;;;;9.65;2.00;;;12.70;99.90;;;;;;4927081;28;20440;-92
2023/03/31 12:38:15;;;;;;;9.30;1.85;;;12.60;99.90;;;;;;4938014;28;20097;-91
2023/03/31 12:40:48;;;;;;;10.50;2.15;;;12.60;99.90;;;;;;4937731;28;20078;-90
2023/03/31 12:43:35;;;;;;;8.13;2.10;;;12.60;99.90;;;;;;4939007;28;20097;-90
2023/03/31 12:46:36;;;;;;;8.77;2.25;;;12.70;99.90;;;;;;4937182;28;20082;-90
2023/03/31 12:49:54;;;;;;;;;;;;;;;;;;;;;
2023/03/31 12:52:50;;;;;;;7.88;2.03;;;12.90;99.90;;;;;;4947567;28;20499;-90
2023/03/31 12:55:31;;;;;;;9.63;2.03;;;13.10;99.90;;;;;;4936524;28;20054;-90
2023/03/31 12:58:28;;;;;;;7.53;1.60;;;13.20;99.90;;;;;;4938481;28;20043;-90
2023/03/31 13:01:09;;;;;;;13.52;2.38;;;13.00;99.90;;;;;;4933289;29;20117;-89
2023/03/31 13:03:34;;;;;;;10.57;2.70;;;13.80;99.90;;;;;;4925769;28;20051;-90
2023/03/31 13:06:04;;;;;;;8.27;2.10;;;14.00;99.90;;;;;;4930695;29;20036;-90
2023/03/31 13:08:53;;;;;;;9.90;2.75;;;14.10;99.90;;;;;;4918865;28;20115;-90
2023/03/31 13:11:35;;;;;;;12.93;2.50;;;14.20;99.90;;;;;;4930237;28;20050;-90
2023/03/31 13:14:18;;;;;;;7.05;2.00;;;14.20;99.90;;;;;;4934389;29;20058;-91
2023/03/31 13:16:45;;;;;;;10.93;2.97;;;14.10;99.90;;;;;;4924607;28;20376;-90